sensor_id;sensor_type;location;lat;lon;timestamp;P1;durP1;ratioP1;P2;durP2;ratioP2
10985;SDS011;5546;48.714;8.738;2022-07-23T00:00:00;6.65;;;6.00;;
10985;SDS011;5546;48.714;8.738;2022-07-23T00:02:25;6.80;;;6.15;;
10985;SDS011;5546;48.714;8.738;2022-07-23T00:04:51;8.13;;;6.30;;
10985;SDS011;5546;48.714;8.738;2022-07-23T00:07:17;6.85;;;6.25;;
10985;SDS011;5546;48.714;8.738;2022-07-23T00:09:42;7.88;;;7.22;;
10985;SDS011;5546;48.714;8.738;2022-07-23T00:12:08;7.82;;;7.07;;
10985;SDS011;5546;48.714;8.738;2022-07-23T00:14:34;7.38;;;6.68;;
10985;SDS011;5546;48.714;8.738;2022-07-23T00:16:59;7.55;;;6.50;;
10985;SDS011;5546;48.714;8.738;2022-07-23T00:19:25;7.28;;;6.60;;
10985;SDS011;5546;48.714;8.738;2022-07-23T00:21:50;6.25;;;5.70;;
10985;SDS011;5546;48.714;8.738;2022-07-23T00:24:16;7.28;;;6.53;;
10985;SDS011;5546;48.714;8.738;2022-07-23T00:26:42;6.60;;;6.00;;
10985;SDS011;5546;48.714;8.738;2022-07-23T00:29:07;6.93;;;6.32;;
10985;SDS011;5546;48.714;8.738;2022-07-23T00:31:33;7.07;;;6.13;;
10985;SDS011;5546;48.714;8.738;2022-07-23T00:33:59;6.95;;;6.18;;
10985;SDS011;5546;48.714;8.738;2022-07-23T00:36:26;6.75;;;5.63;;
10985;SDS011;5546;48.714;8.738;2022-07-23T00:38:52;6.07;;;5.53;;
10985;SDS011;5546;48.714;8.738;2022-07-23T00:41:18;6.00;;;5.50;;
10985;SDS011;5546;48.714;8.738;2022-07-23T00:43:44;6.88;;;5.93;;
10985;SDS011;5546;48.714;8.738;2022-07-23T00:46:10;6.68;;;5.95;;
10985;SDS011;5546;48.714;8.738;2022-07-23T00:48:35;6.82;;;5.80;;
10985;SDS011;5546;48.714;8.738;2022-07-23T00:51:01;6.43;;;5.38;;
10985;SDS011;5546;48.714;8.738;2022-07-23T00:53:27;6.10;;;5.50;;
10985;SDS011;5546;48.714;8.738;2022-07-23T00:55:53;6.10;;;5.60;;
10985;SDS011;5546;48.714;8.738;2022-07-23T00:58:19;6.30;;;5.80;;
10985;SDS011;5546;48.714;8.738;2022-07-23T01:00:45;6.38;;;5.78;;
10985;SDS011;5546;48.714;8.738;2022-07-23T01:03:10;6.05;;;5.43;;
10985;SDS011;5546;48.714;8.738;2022-07-23T01:05:36;5.72;;;5.20;;
10985;SDS011;5546;48.714;8.738;2022-07-23T01:08:02;5.60;;;5.10;;
10985;SDS011;5546;48.714;8.738;2022-07-23T01:10:28;5.15;;;4.70;;
10985;SDS011;5546;48.714;8.738;2022-07-23T01:12:56;5.70;;;5.20;;
10985;SDS011;5546;48.714;8.738;2022-07-23T01:15:22;5.78;;;5.18;;
10985;SDS011;5546;48.714;8.738;2022-07-23T01:17:49;5.95;;;5.45;;
10985;SDS011;5546;48.714;8.738;2022-07-23T01:20:15;5.70;;;5.13;;
10985;SDS011;5546;48.714;8.738;2022-07-23T01:22:41;6.03;;;5.53;;
10985;SDS011;5546;48.714;8.738;2022-07-23T01:25:06;4.90;;;4.50;;
10985;SDS011;5546;48.714;8.738;2022-07-23T01:27:32;6.32;;;4.90;;
10985;SDS011;5546;48.714;8.738;2022-07-23T01:29:59;6.63;;;5.25;;
10985;SDS011;5546;48.714;8.738;2022-07-23T01:32:25;5.85;;;5.25;;
10985;SDS011;5546;48.714;8.738;2022-07-23T01:34:51;5.72;;;5.13;;
10985;SDS011;5546;48.714;8.738;2022-07-23T01:37:17;6.72;;;5.22;;
10985;SDS011;5546;48.714;8.738;2022-07-23T01:39:42;5.78;;;5.28;;
10985;SDS011;5546;48.714;8.738;2022-07-23T01:42:08;5.90;;;5.30;;
10985;SDS011;5546;48.714;8.738;2022-07-23T01:44:34;5.50;;;5.00;;
10985;SDS011;5546;48.714;8.738;2022-07-23T01:46:59;6.30;;;4.60;;
10985;SDS011;5546;48.714;8.738;2022-07-23T01:49:25;5.97;;;5.10;;
10985;SDS011;5546;48.714;8.738;2022-07-23T01:51:51;5.32;;;4.82;;
10985;SDS011;5546;48.714;8.738;2022-07-23T01:54:28;5.65;;;5.15;;
10985;SDS011;5546;48.714;8.738;2022-07-23T01:56:55;5.28;;;4.85;;
10985;SDS011;5546;48.714;8.738;2022-07-23T01:59:22;5.32;;;4.85;;
10985;SDS011;5546;48.714;8.738;2022-07-23T02:01:54;5.38;;;4.88;;
10985;SDS011;5546;48.714;8.738;2022-07-23T02:04:20;6.93;;;5.10;;
10985;SDS011;5546;48.714;8.738;2022-07-23T02:06:47;6.32;;;5.30;;
10985;SDS011;5546;48.714;8.738;2022-07-23T02:09:13;5.47;;;4.97;;
10985;SDS011;5546;48.714;8.738;2022-07-23T02:11:38;5.90;;;5.40;;
10985;SDS011;5546;48.714;8.738;2022-07-23T02:14:04;5.50;;;5.00;;
10985;SDS011;5546;48.714;8.738;2022-07-23T02:16:29;5.75;;;5.25;;
10985;SDS011;5546;48.714;8.738;2022-07-23T02:18:55;5.53;;;5.07;;
10985;SDS011;5546;48.714;8.738;2022-07-23T02:21:21;5.40;;;5.00;;
10985;SDS011;5546;48.714;8.738;2022-07-23T02:23:46;5.57;;;5.18;;
10985;SDS011;5546;48.714;8.738;2022-07-23T02:26:12;5.63;;;5.13;;
10985;SDS011;5546;48.714;8.738;2022-07-23T02:28:38;7.10;;;5.95;;
10985;SDS011;5546;48.714;8.738;2022-07-23T02:31:03;5.65;;;5.15;;
10985;SDS011;5546;48.714;8.738;2022-07-23T02:33:32;6.22;;;4.80;;
10985;SDS011;5546;48.714;8.738;2022-07-23T02:35:59;6.68;;;4.75;;
10985;SDS011;5546;48.714;8.738;2022-07-23T02:38:24;5.75;;;5.20;;
10985;SDS011;5546;48.714;8.738;2022-07-23T02:40:50;4.90;;;4.47;;
10985;SDS011;5546;48.714;8.738;2022-07-23T02:43:16;5.47;;;4.97;;
10985;SDS011;5546;48.714;8.738;2022-07-23T02:45:42;5.65;;;5.13;;
10985;SDS011;5546;48.714;8.738;2022-07-23T02:48:08;5.93;;;5.30;;
10985;SDS011;5546;48.714;8.738;2022-07-23T02:50:33;6.45;;;5.07;;
10985;SDS011;5546;48.714;8.738;2022-07-23T02:52:59;5.60;;;5.10;;
10985;SDS011;5546;48.714;8.738;2022-07-23T02:55:25;5.57;;;4.80;;
10985;SDS011;5546;48.714;8.738;2022-07-23T02:57:51;7.40;;;5.18;;
10985;SDS011;5546;48.714;8.738;2022-07-23T03:00:17;5.03;;;4.63;;
10985;SDS011;5546;48.714;8.738;2022-07-23T03:02:43;5.72;;;5.22;;
10985;SDS011;5546;48.714;8.738;2022-07-23T03:05:09;5.93;;;5.38;;
10985;SDS011;5546;48.714;8.738;2022-07-23T03:07:34;5.30;;;4.82;;
10985;SDS011;5546;48.714;8.738;2022-07-23T03:10:00;5.57;;;4.90;;
10985;SDS011;5546;48.714;8.738;2022-07-23T03:12:26;5.70;;;5.20;;
10985;SDS011;5546;48.714;8.738;2022-07-23T03:14:51;5.40;;;5.00;;
10985;SDS011;5546;48.714;8.738;2022-07-23T03:17:17;5.40;;;4.90;;
10985;SDS011;5546;48.714;8.738;2022-07-23T03:19:42;6.00;;;4.88;;
10985;SDS011;5546;48.714;8.738;2022-07-23T03:22:08;5.93;;;4.97;;
10985;SDS011;5546;48.714;8.738;2022-07-23T03:24:34;5.85;;;5.35;;
10985;SDS011;5546;48.714;8.738;2022-07-23T03:27:18;5.60;;;5.03;;
10985;SDS011;5546;48.714;8.738;2022-07-23T03:29:45;5.82;;;5.32;;
10985;SDS011;5546;48.714;8.738;2022-07-23T03:32:11;6.55;;;5.68;;
10985;SDS011;5546;48.714;8.738;2022-07-23T03:34:36;7.22;;;5.07;;
10985;SDS011;5546;48.714;8.738;2022-07-23T03:37:03;6.70;;;5.13;;
10985;SDS011;5546;48.714;8.738;2022-07-23T03:39:29;5.40;;;4.90;;
10985;SDS011;5546;48.714;8.738;2022-07-23T03:41:54;5.82;;;5.03;;
10985;SDS011;5546;48.714;8.738;2022-07-23T03:44:23;5.57;;;5.07;;
10985;SDS011;5546;48.714;8.738;2022-07-23T03:46:48;5.32;;;4.93;;
10985;SDS011;5546;48.714;8.738;2022-07-23T03:49:14;6.07;;;4.97;;
10985;SDS011;5546;48.714;8.738;2022-07-23T03:51:40;6.38;;;5.13;;
10985;SDS011;5546;48.714;8.738;2022-07-23T03:54:05;5.47;;;5.05;;
10985;SDS011;5546;48.714;8.738;2022-07-23T03:56:31;5.30;;;4.80;;
10985;SDS011;5546;48.714;8.738;2022-07-23T03:58:56;6.60;;;5.28;;
10985;SDS011;5546;48.714;8.738;2022-07-23T04:01:22;6.25;;;5.30;;
10985;SDS011;5546;48.714;8.738;2022-07-23T04:03:47;5.50;;;5.00;;
10985;SDS011;5546;48.714;8.738;2022-07-23T04:06:13;5.85;;;4.78;;
10985;SDS011;5546;48.714;8.738;2022-07-23T04:08:39;5.72;;;5.22;;
10985;SDS011;5546;48.714;8.738;2022-07-23T04:11:04;5.70;;;5.20;;
10985;SDS011;5546;48.714;8.738;2022-07-23T04:13:30;5.60;;;5.10;;
10985;SDS011;5546;48.714;8.738;2022-07-23T04:15:57;7.68;;;5.13;;
10985;SDS011;5546;48.714;8.738;2022-07-23T04:18:23;5.70;;;5.20;;
10985;SDS011;5546;48.714;8.738;2022-07-23T04:20:50;5.72;;;5.22;;
10985;SDS011;5546;48.714;8.738;2022-07-23T04:23:17;5.32;;;4.93;;
10985;SDS011;5546;48.714;8.738;2022-07-23T04:25:42;5.80;;;5.30;;
10985;SDS011;5546;48.714;8.738;2022-07-23T04:28:08;5.72;;;5.22;;
10985;SDS011;5546;48.714;8.738;2022-07-23T04:30:34;5.72;;;5.22;;
10985;SDS011;5546;48.714;8.738;2022-07-23T04:33:00;5.63;;;5.13;;
10985;SDS011;5546;48.714;8.738;2022-07-23T04:35:25;6.63;;;6.03;;
10985;SDS011;5546;48.714;8.738;2022-07-23T04:37:51;7.75;;;5.60;;
10985;SDS011;5546;48.714;8.738;2022-07-23T04:40:17;5.80;;;5.30;;
10985;SDS011;5546;48.714;8.738;2022-07-23T04:42:42;5.47;;;4.97;;
10985;SDS011;5546;48.714;8.738;2022-07-23T04:45:08;6.65;;;5.93;;
10985;SDS011;5546;48.714;8.738;2022-07-23T04:47:34;5.65;;;5.15;;
10985;SDS011;5546;48.714;8.738;2022-07-23T04:50:00;6.38;;;5.78;;
10985;SDS011;5546;48.714;8.738;2022-07-23T04:52:25;6.30;;;5.60;;
10985;SDS011;5546;48.714;8.738;2022-07-23T04:54:51;5.90;;;5.30;;
10985;SDS011;5546;48.714;8.738;2022-07-23T04:57:16;5.70;;;5.20;;
10985;SDS011;5546;48.714;8.738;2022-07-23T04:59:42;5.85;;;5.35;;
10985;SDS011;5546;48.714;8.738;2022-07-23T05:02:08;5.85;;;5.18;;
10985;SDS011;5546;48.714;8.738;2022-07-23T05:04:33;5.88;;;5.38;;
10985;SDS011;5546;48.714;8.738;2022-07-23T05:06:59;6.30;;;5.15;;
10985;SDS011;5546;48.714;8.738;2022-07-23T05:09:24;5.45;;;4.95;;
10985;SDS011;5546;48.714;8.738;2022-07-23T05:11:50;5.95;;;5.45;;
10985;SDS011;5546;48.714;8.738;2022-07-23T05:14:16;5.68;;;5.18;;
10985;SDS011;5546;48.714;8.738;2022-07-23T05:16:41;5.78;;;5.28;;
10985;SDS011;5546;48.714;8.738;2022-07-23T05:19:07;6.20;;;5.50;;
10985;SDS011;5546;48.714;8.738;2022-07-23T05:21:33;6.35;;;5.65;;
10985;SDS011;5546;48.714;8.738;2022-07-23T05:23:59;5.60;;;5.10;;
10985;SDS011;5546;48.714;8.738;2022-07-23T05:26:24;5.90;;;5.40;;
10985;SDS011;5546;48.714;8.738;2022-07-23T05:28:50;5.65;;;5.20;;
10985;SDS011;5546;48.714;8.738;2022-07-23T05:31:16;5.85;;;5.35;;
10985;SDS011;5546;48.714;8.738;2022-07-23T05:33:41;6.63;;;5.80;;
10985;SDS011;5546;48.714;8.738;2022-07-23T05:36:08;5.32;;;4.82;;
10985;SDS011;5546;48.714;8.738;2022-07-23T05:38:33;6.53;;;5.38;;
10985;SDS011;5546;48.714;8.738;2022-07-23T05:40:59;6.35;;;5.60;;
10985;SDS011;5546;48.714;8.738;2022-07-23T05:43:25;5.97;;;5.38;;
10985;SDS011;5546;48.714;8.738;2022-07-23T05:45:50;5.40;;;5.00;;
10985;SDS011;5546;48.714;8.738;2022-07-23T05:48:16;5.93;;;5.43;;
10985;SDS011;5546;48.714;8.738;2022-07-23T05:50:41;6.13;;;5.55;;
10985;SDS011;5546;48.714;8.738;2022-07-23T05:53:07;5.93;;;5.43;;
10985;SDS011;5546;48.714;8.738;2022-07-23T05:55:33;6.35;;;5.30;;
10985;SDS011;5546;48.714;8.738;2022-07-23T05:57:58;5.72;;;5.10;;
10985;SDS011;5546;48.714;8.738;2022-07-23T06:00:24;6.68;;;5.60;;
10985;SDS011;5546;48.714;8.738;2022-07-23T06:02:50;6.00;;;5.40;;
10985;SDS011;5546;48.714;8.738;2022-07-23T06:05:17;8.55;;;5.22;;
10985;SDS011;5546;48.714;8.738;2022-07-23T06:07:42;5.78;;;5.20;;
10985;SDS011;5546;48.714;8.738;2022-07-23T06:10:08;5.40;;;4.90;;
10985;SDS011;5546;48.714;8.738;2022-07-23T06:12:33;5.82;;;5.28;;
10985;SDS011;5546;48.714;8.738;2022-07-23T06:14:59;6.05;;;5.32;;
10985;SDS011;5546;48.714;8.738;2022-07-23T06:17:25;6.38;;;5.00;;
10985;SDS011;5546;48.714;8.738;2022-07-23T06:19:51;5.97;;;5.38;;
10985;SDS011;5546;48.714;8.738;2022-07-23T06:22:17;6.05;;;5.45;;
10985;SDS011;5546;48.714;8.738;2022-07-23T06:24:43;7.80;;;5.40;;
10985;SDS011;5546;48.714;8.738;2022-07-23T06:27:08;6.25;;;5.25;;
10985;SDS011;5546;48.714;8.738;2022-07-23T06:29:34;5.57;;;4.93;;
10985;SDS011;5546;48.714;8.738;2022-07-23T06:32:00;5.75;;;4.78;;
10985;SDS011;5546;48.714;8.738;2022-07-23T06:34:26;6.05;;;5.47;;
10985;SDS011;5546;48.714;8.738;2022-07-23T06:36:51;5.70;;;5.20;;
10985;SDS011;5546;48.714;8.738;2022-07-23T06:39:17;6.20;;;5.63;;
10985;SDS011;5546;48.714;8.738;2022-07-23T06:41:43;5.97;;;5.38;;
10985;SDS011;5546;48.714;8.738;2022-07-23T06:44:09;5.63;;;5.13;;
10985;SDS011;5546;48.714;8.738;2022-07-23T06:46:35;8.82;;;5.55;;
10985;SDS011;5546;48.714;8.738;2022-07-23T06:49:00;6.63;;;6.13;;
10985;SDS011;5546;48.714;8.738;2022-07-23T06:51:26;6.70;;;6.07;;
10985;SDS011;5546;48.714;8.738;2022-07-23T06:53:51;7.20;;;5.85;;
10985;SDS011;5546;48.714;8.738;2022-07-23T06:56:17;6.18;;;5.60;;
10985;SDS011;5546;48.714;8.738;2022-07-23T06:58:42;6.05;;;5.55;;
10985;SDS011;5546;48.714;8.738;2022-07-23T07:01:08;5.97;;;5.35;;
10985;SDS011;5546;48.714;8.738;2022-07-23T07:03:33;6.85;;;6.18;;
10985;SDS011;5546;48.714;8.738;2022-07-23T07:05:59;7.75;;;7.05;;
10985;SDS011;5546;48.714;8.738;2022-07-23T07:08:27;7.03;;;6.05;;
10985;SDS011;5546;48.714;8.738;2022-07-23T07:10:52;6.00;;;5.40;;
10985;SDS011;5546;48.714;8.738;2022-07-23T07:13:18;5.97;;;5.28;;
10985;SDS011;5546;48.714;8.738;2022-07-23T07:15:44;7.22;;;5.90;;
10985;SDS011;5546;48.714;8.738;2022-07-23T07:18:09;6.78;;;5.72;;
10985;SDS011;5546;48.714;8.738;2022-07-23T07:20:35;6.50;;;5.90;;
10985;SDS011;5546;48.714;8.738;2022-07-23T07:23:01;6.55;;;5.95;;
10985;SDS011;5546;48.714;8.738;2022-07-23T07:25:27;6.63;;;5.93;;
10985;SDS011;5546;48.714;8.738;2022-07-23T07:27:53;6.18;;;5.63;;
10985;SDS011;5546;48.714;8.738;2022-07-23T07:30:18;6.18;;;5.60;;
10985;SDS011;5546;48.714;8.738;2022-07-23T07:32:44;6.22;;;5.65;;
10985;SDS011;5546;48.714;8.738;2022-07-23T07:35:09;5.93;;;5.40;;
10985;SDS011;5546;48.714;8.738;2022-07-23T07:37:35;5.53;;;5.03;;
10985;SDS011;5546;48.714;8.738;2022-07-23T07:40:00;6.40;;;5.80;;
10985;SDS011;5546;48.714;8.738;2022-07-23T07:42:27;6.35;;;5.78;;
10985;SDS011;5546;48.714;8.738;2022-07-23T07:44:52;5.63;;;5.13;;
10985;SDS011;5546;48.714;8.738;2022-07-23T07:47:18;6.95;;;5.90;;
10985;SDS011;5546;48.714;8.738;2022-07-23T07:49:44;7.22;;;5.47;;
10985;SDS011;5546;48.714;8.738;2022-07-23T07:52:09;5.40;;;5.00;;
10985;SDS011;5546;48.714;8.738;2022-07-23T07:54:35;5.40;;;5.00;;
10985;SDS011;5546;48.714;8.738;2022-07-23T07:57:02;6.15;;;5.55;;
10985;SDS011;5546;48.714;8.738;2022-07-23T07:59:27;5.78;;;5.20;;
10985;SDS011;5546;48.714;8.738;2022-07-23T08:01:53;5.55;;;5.10;;
10985;SDS011;5546;48.714;8.738;2022-07-23T08:04:19;6.10;;;5.47;;
10985;SDS011;5546;48.714;8.738;2022-07-23T08:06:44;5.60;;;4.93;;
10985;SDS011;5546;48.714;8.738;2022-07-23T08:09:10;5.72;;;5.22;;
10985;SDS011;5546;48.714;8.738;2022-07-23T08:11:36;6.15;;;5.50;;
10985;SDS011;5546;48.714;8.738;2022-07-23T08:14:01;5.35;;;4.85;;
10985;SDS011;5546;48.714;8.738;2022-07-23T08:16:28;5.72;;;5.22;;
10985;SDS011;5546;48.714;8.738;2022-07-23T08:18:54;6.55;;;5.07;;
10985;SDS011;5546;48.714;8.738;2022-07-23T08:21:19;5.50;;;4.97;;
10985;SDS011;5546;48.714;8.738;2022-07-23T08:23:45;6.05;;;5.38;;
10985;SDS011;5546;48.714;8.738;2022-07-23T08:26:10;5.50;;;5.07;;
10985;SDS011;5546;48.714;8.738;2022-07-23T08:28:36;6.80;;;5.47;;
10985;SDS011;5546;48.714;8.738;2022-07-23T08:31:02;5.80;;;5.38;;
10985;SDS011;5546;48.714;8.738;2022-07-23T08:33:28;5.35;;;4.85;;
10985;SDS011;5546;48.714;8.738;2022-07-23T08:35:53;6.00;;;5.47;;
10985;SDS011;5546;48.714;8.738;2022-07-23T08:38:20;5.68;;;5.22;;
10985;SDS011;5546;48.714;8.738;2022-07-23T08:40:47;7.35;;;5.35;;
10985;SDS011;5546;48.714;8.738;2022-07-23T08:43:15;5.53;;;5.03;;
10985;SDS011;5546;48.714;8.738;2022-07-23T08:45:44;5.82;;;5.05;;
10985;SDS011;5546;48.714;8.738;2022-07-23T08:48:12;6.10;;;5.50;;
10985;SDS011;5546;48.714;8.738;2022-07-23T08:50:41;5.22;;;4.72;;
10985;SDS011;5546;48.714;8.738;2022-07-23T08:53:08;5.50;;;5.00;;
10985;SDS011;5546;48.714;8.738;2022-07-23T08:55:34;5.20;;;4.70;;
10985;SDS011;5546;48.714;8.738;2022-07-23T08:57:59;5.68;;;5.15;;
10985;SDS011;5546;48.714;8.738;2022-07-23T09:00:25;5.20;;;4.70;;
10985;SDS011;5546;48.714;8.738;2022-07-23T09:02:51;5.53;;;4.95;;
10985;SDS011;5546;48.714;8.738;2022-07-23T09:05:17;5.45;;;4.95;;
10985;SDS011;5546;48.714;8.738;2022-07-23T09:11:10;5.22;;;4.80;;
10985;SDS011;5546;48.714;8.738;2022-07-23T09:16:02;4.80;;;4.38;;
10985;SDS011;5546;48.714;8.738;2022-07-23T09:18:43;5.38;;;4.88;;
10985;SDS011;5546;48.714;8.738;2022-07-23T09:26:35;5.47;;;5.07;;
10985;SDS011;5546;48.714;8.738;2022-07-23T09:31:33;5.20;;;4.80;;
10985;SDS011;5546;48.714;8.738;2022-07-23T09:34:08;4.88;;;4.53;;
10985;SDS011;5546;48.714;8.738;2022-07-23T09:36:35;5.13;;;4.70;;
10985;SDS011;5546;48.714;8.738;2022-07-23T09:39:00;5.38;;;4.93;;
10985;SDS011;5546;48.714;8.738;2022-07-23T09:41:29;5.13;;;4.63;;
10985;SDS011;5546;48.714;8.738;2022-07-23T09:44:06;5.05;;;4.65;;
10985;SDS011;5546;48.714;8.738;2022-07-23T09:46:33;4.85;;;4.45;;
10985;SDS011;5546;48.714;8.738;2022-07-23T09:48:58;5.05;;;4.55;;
10985;SDS011;5546;48.714;8.738;2022-07-23T09:51:55;6.22;;;4.63;;
10985;SDS011;5546;48.714;8.738;2022-07-23T09:57:00;5.40;;;4.90;;
10985;SDS011;5546;48.714;8.738;2022-07-23T09:59:38;4.68;;;4.28;;
10985;SDS011;5546;48.714;8.738;2022-07-23T10:02:05;5.25;;;4.85;;
10985;SDS011;5546;48.714;8.738;2022-07-23T10:04:32;5.20;;;4.80;;
10985;SDS011;5546;48.714;8.738;2022-07-23T10:06:59;5.05;;;4.55;;
10985;SDS011;5546;48.714;8.738;2022-07-23T10:09:28;5.72;;;5.13;;
10985;SDS011;5546;48.714;8.738;2022-07-23T10:12:05;5.47;;;4.97;;
10985;SDS011;5546;48.714;8.738;2022-07-23T10:14:41;5.50;;;5.00;;
10985;SDS011;5546;48.714;8.738;2022-07-23T10:17:08;5.32;;;4.82;;
10985;SDS011;5546;48.714;8.738;2022-07-23T10:19:34;5.82;;;5.03;;
10985;SDS011;5546;48.714;8.738;2022-07-23T10:22:00;5.35;;;4.90;;
10985;SDS011;5546;48.714;8.738;2022-07-23T10:24:43;5.38;;;4.88;;
10985;SDS011;5546;48.714;8.738;2022-07-23T10:35:13;5.88;;;5.38;;
10985;SDS011;5546;48.714;8.738;2022-07-23T10:38:02;5.63;;;5.13;;
10985;SDS011;5546;48.714;8.738;2022-07-23T10:43:22;6.00;;;5.40;;
10985;SDS011;5546;48.714;8.738;2022-07-23T10:45:48;5.43;;;4.97;;
10985;SDS011;5546;48.714;8.738;2022-07-23T10:48:18;5.85;;;5.32;;
10985;SDS011;5546;48.714;8.738;2022-07-23T10:53:52;5.75;;;5.13;;
10985;SDS011;5546;48.714;8.738;2022-07-23T10:59:30;6.75;;;5.13;;
10985;SDS011;5546;48.714;8.738;2022-07-23T11:02:19;5.72;;;5.25;;
10985;SDS011;5546;48.714;8.738;2022-07-23T11:04:48;6.50;;;5.07;;
10985;SDS011;5546;48.714;8.738;2022-07-23T11:07:16;5.93;;;5.30;;
10985;SDS011;5546;48.714;8.738;2022-07-23T11:09:42;5.95;;;5.38;;
10985;SDS011;5546;48.714;8.738;2022-07-23T11:17:24;5.75;;;5.25;;
10985;SDS011;5546;48.714;8.738;2022-07-23T11:22:35;6.30;;;5.70;;
10985;SDS011;5546;48.714;8.738;2022-07-23T11:25:01;5.80;;;5.40;;
10985;SDS011;5546;48.714;8.738;2022-07-23T11:27:45;5.95;;;5.45;;
10985;SDS011;5546;48.714;8.738;2022-07-23T11:32:53;5.82;;;5.32;;
10985;SDS011;5546;48.714;8.738;2022-07-23T11:35:32;5.70;;;5.30;;
10985;SDS011;5546;48.714;8.738;2022-07-23T11:38:06;5.93;;;5.32;;
10985;SDS011;5546;48.714;8.738;2022-07-23T11:40:33;5.63;;;5.13;;
10985;SDS011;5546;48.714;8.738;2022-07-23T11:43:03;5.97;;;5.22;;
10985;SDS011;5546;48.714;8.738;2022-07-23T11:45:35;6.15;;;5.60;;
10985;SDS011;5546;48.714;8.738;2022-07-23T11:48:02;5.70;;;5.20;;
10985;SDS011;5546;48.714;8.738;2022-07-23T11:50:29;6.68;;;5.47;;
10985;SDS011;5546;48.714;8.738;2022-07-23T11:52:54;5.50;;;5.03;;
10985;SDS011;5546;48.714;8.738;2022-07-23T11:55:20;6.20;;;5.60;;
10985;SDS011;5546;48.714;8.738;2022-07-23T11:57:46;6.55;;;5.47;;
10985;SDS011;5546;48.714;8.738;2022-07-23T12:02:46;6.55;;;5.90;;
10985;SDS011;5546;48.714;8.738;2022-07-23T12:05:14;6.47;;;5.88;;
10985;SDS011;5546;48.714;8.738;2022-07-23T12:08:00;7.82;;;5.70;;
10985;SDS011;5546;48.714;8.738;2022-07-23T12:10:38;5.38;;;4.88;;
10985;SDS011;5546;48.714;8.738;2022-07-23T12:13:09;5.85;;;5.30;;
10985;SDS011;5546;48.714;8.738;2022-07-23T12:15:38;5.68;;;5.18;;
10985;SDS011;5546;48.714;8.738;2022-07-23T12:18:09;5.72;;;5.22;;
10985;SDS011;5546;48.714;8.738;2022-07-23T12:20:40;8.00;;;7.30;;
10985;SDS011;5546;48.714;8.738;2022-07-23T12:23:11;6.32;;;5.72;;
10985;SDS011;5546;48.714;8.738;2022-07-23T12:25:39;6.57;;;5.47;;
10985;SDS011;5546;48.714;8.738;2022-07-23T12:28:10;6.68;;;5.95;;
10985;SDS011;5546;48.714;8.738;2022-07-23T12:30:50;6.13;;;5.63;;
10985;SDS011;5546;48.714;8.738;2022-07-23T12:33:33;6.07;;;5.43;;
10985;SDS011;5546;48.714;8.738;2022-07-23T12:36:01;6.30;;;5.40;;
10985;SDS011;5546;48.714;8.738;2022-07-23T12:38:37;5.35;;;4.85;;
10985;SDS011;5546;48.714;8.738;2022-07-23T12:41:05;6.30;;;5.20;;
10985;SDS011;5546;48.714;8.738;2022-07-23T12:43:31;6.10;;;5.50;;
10985;SDS011;5546;48.714;8.738;2022-07-23T12:48:32;5.32;;;4.93;;
10985;SDS011;5546;48.714;8.738;2022-07-23T12:51:22;6.20;;;5.70;;
10985;SDS011;5546;48.714;8.738;2022-07-23T12:53:51;5.72;;;5.22;;
10985;SDS011;5546;48.714;8.738;2022-07-23T12:56:26;5.85;;;5.25;;
10985;SDS011;5546;48.714;8.738;2022-07-23T13:01:27;5.68;;;5.28;;
10985;SDS011;5546;48.714;8.738;2022-07-23T13:03:56;6.05;;;5.45;;
10985;SDS011;5546;48.714;8.738;2022-07-23T13:06:27;5.95;;;5.50;;
10985;SDS011;5546;48.714;8.738;2022-07-23T13:08:54;5.75;;;5.15;;
10985;SDS011;5546;48.714;8.738;2022-07-23T13:11:21;5.60;;;5.10;;
10985;SDS011;5546;48.714;8.738;2022-07-23T13:13:46;6.32;;;5.72;;
10985;SDS011;5546;48.714;8.738;2022-07-23T13:16:12;5.85;;;5.32;;
10985;SDS011;5546;48.714;8.738;2022-07-23T13:18:37;6.72;;;6.05;;
10985;SDS011;5546;48.714;8.738;2022-07-23T13:21:03;6.30;;;5.80;;
10985;SDS011;5546;48.714;8.738;2022-07-23T13:23:29;5.90;;;5.40;;
10985;SDS011;5546;48.714;8.738;2022-07-23T13:25:54;6.55;;;5.90;;
10985;SDS011;5546;48.714;8.738;2022-07-23T13:28:20;7.47;;;5.82;;
10985;SDS011;5546;48.714;8.738;2022-07-23T13:30:48;6.55;;;5.95;;
10985;SDS011;5546;48.714;8.738;2022-07-23T13:33:16;6.65;;;6.07;;
10985;SDS011;5546;48.714;8.738;2022-07-23T13:35:45;7.45;;;6.78;;
10985;SDS011;5546;48.714;8.738;2022-07-23T13:38:11;6.00;;;5.47;;
10985;SDS011;5546;48.714;8.738;2022-07-23T13:40:38;6.20;;;5.70;;
10985;SDS011;5546;48.714;8.738;2022-07-23T13:43:07;7.50;;;6.63;;
10985;SDS011;5546;48.714;8.738;2022-07-23T13:45:35;8.02;;;5.53;;
10985;SDS011;5546;48.714;8.738;2022-07-23T13:48:01;5.68;;;5.18;;
10985;SDS011;5546;48.714;8.738;2022-07-23T13:50:27;6.80;;;5.50;;
10985;SDS011;5546;48.714;8.738;2022-07-23T13:52:52;7.05;;;5.57;;
10985;SDS011;5546;48.714;8.738;2022-07-23T13:55:18;5.30;;;4.80;;
10985;SDS011;5546;48.714;8.738;2022-07-23T13:57:44;6.32;;;5.68;;
10985;SDS011;5546;48.714;8.738;2022-07-23T14:00:10;5.88;;;5.38;;
10985;SDS011;5546;48.714;8.738;2022-07-23T14:02:37;6.90;;;5.22;;
10985;SDS011;5546;48.714;8.738;2022-07-23T14:05:07;5.57;;;5.18;;
10985;SDS011;5546;48.714;8.738;2022-07-23T14:07:35;6.05;;;5.55;;
10985;SDS011;5546;48.714;8.738;2022-07-23T14:10:02;5.80;;;5.32;;
10985;SDS011;5546;48.714;8.738;2022-07-23T14:12:29;6.35;;;5.75;;
10985;SDS011;5546;48.714;8.738;2022-07-23T14:14:55;6.55;;;5.90;;
10985;SDS011;5546;48.714;8.738;2022-07-23T14:17:20;6.45;;;5.65;;
10985;SDS011;5546;48.714;8.738;2022-07-23T14:19:46;6.20;;;5.63;;
10985;SDS011;5546;48.714;8.738;2022-07-23T14:22:12;6.00;;;5.38;;
10985;SDS011;5546;48.714;8.738;2022-07-23T14:24:37;5.65;;;5.15;;
10985;SDS011;5546;48.714;8.738;2022-07-23T14:27:03;5.35;;;4.95;;
10985;SDS011;5546;48.714;8.738;2022-07-23T14:29:30;5.50;;;5.00;;
10985;SDS011;5546;48.714;8.738;2022-07-23T14:31:56;7.50;;;5.70;;
10985;SDS011;5546;48.714;8.738;2022-07-23T14:34:22;5.50;;;5.00;;
10985;SDS011;5546;48.714;8.738;2022-07-23T14:36:48;6.03;;;5.30;;
10985;SDS011;5546;48.714;8.738;2022-07-23T14:39:14;7.30;;;5.07;;
10985;SDS011;5546;48.714;8.738;2022-07-23T14:41:40;5.82;;;4.97;;
10985;SDS011;5546;48.714;8.738;2022-07-23T14:44:05;7.47;;;5.13;;
10985;SDS011;5546;48.714;8.738;2022-07-23T14:46:31;5.43;;;4.88;;
10985;SDS011;5546;48.714;8.738;2022-07-23T14:48:57;5.93;;;5.45;;
10985;SDS011;5546;48.714;8.738;2022-07-23T14:51:22;5.60;;;5.10;;
10985;SDS011;5546;48.714;8.738;2022-07-23T14:53:48;6.03;;;5.50;;
10985;SDS011;5546;48.714;8.738;2022-07-23T14:56:14;6.47;;;5.97;;
10985;SDS011;5546;48.714;8.738;2022-07-23T14:58:39;5.68;;;5.18;;
10985;SDS011;5546;48.714;8.738;2022-07-23T15:01:06;5.60;;;5.20;;
10985;SDS011;5546;48.714;8.738;2022-07-23T15:03:32;6.00;;;5.40;;
10985;SDS011;5546;48.714;8.738;2022-07-23T15:05:58;5.70;;;5.30;;
10985;SDS011;5546;48.714;8.738;2022-07-23T15:08:24;6.28;;;5.78;;
10985;SDS011;5546;48.714;8.738;2022-07-23T15:10:49;6.60;;;6.00;;
10985;SDS011;5546;48.714;8.738;2022-07-23T15:13:15;6.25;;;5.63;;
10985;SDS011;5546;48.714;8.738;2022-07-23T15:15:41;6.05;;;5.55;;
10985;SDS011;5546;48.714;8.738;2022-07-23T15:18:06;6.80;;;5.70;;
10985;SDS011;5546;48.714;8.738;2022-07-23T15:20:32;6.38;;;5.88;;
10985;SDS011;5546;48.714;8.738;2022-07-23T15:22:58;7.10;;;6.20;;
10985;SDS011;5546;48.714;8.738;2022-07-23T15:25:24;6.38;;;5.78;;
10985;SDS011;5546;48.714;8.738;2022-07-23T15:27:49;6.43;;;5.82;;
10985;SDS011;5546;48.714;8.738;2022-07-23T15:30:15;6.10;;;5.50;;
10985;SDS011;5546;48.714;8.738;2022-07-23T15:32:41;6.60;;;5.93;;
10985;SDS011;5546;48.714;8.738;2022-07-23T15:35:07;6.70;;;6.10;;
10985;SDS011;5546;48.714;8.738;2022-07-23T15:37:33;6.55;;;5.93;;
10985;SDS011;5546;48.714;8.738;2022-07-23T15:39:59;6.57;;;5.90;;
10985;SDS011;5546;48.714;8.738;2022-07-23T15:42:25;6.47;;;5.88;;
10985;SDS011;5546;48.714;8.738;2022-07-23T15:44:50;6.10;;;5.55;;
10985;SDS011;5546;48.714;8.738;2022-07-23T15:47:17;5.95;;;5.35;;
10985;SDS011;5546;48.714;8.738;2022-07-23T15:49:43;6.88;;;6.25;;